Time;durP1;ratioP1;P1;durP2;ratioP2;P2;SDS_P1;SDS_P2;PMS_P1;PMS_P2;Temp;Humidity;BMP_temperature;BMP_pressure;BME280_temperature;BME280_humidity;BME280_pressure;Samples;Min_cycle;Max_cycle;Signal;HPM_P1;HPM_P2
2021/06/16 00:01:59;;;;;;;9.18;4.68;;;20.30;69.20;;;;;;4364953;32;20050;-81
2021/06/16 00:04:26;;;;;;;8.38;4.95;;;20.20;69.20;;;;;;4364832;32;20437;-80
2021/06/16 00:06:55;;;;;;;9.52;4.95;;;20.20;69.30;;;;;;4364818;32;20056;-81
2021/06/16 00:09:22;;;;;;;9.88;5.10;;;20.10;69.30;;;;;;4377294;32;20430;-80
2021/06/16 00:11:49;;;;;;;9.98;5.45;;;20.10;69.40;;;;;;4391838;32;20354;-81
2021/06/16 00:14:18;;;;;;;7.10;5.03;;;20.10;69.40;;;;;;4364623;32;20113;-79
2021/06/16 00:16:48;;;;;;;8.98;5.00;;;20.10;69.50;;;;;;4364942;32;20164;-82
2021/06/16 00:19:15;;;;;;;8.93;4.95;;;20.00;69.50;;;;;;4376939;32;20103;-80
2021/06/16 00:21:42;;;;;;;7.80;5.00;;;20.00;69.50;;;;;;4364465;32;20070;-81
2021/06/16 00:24:09;;;;;;;8.70;4.90;;;19.90;69.50;;;;;;4364478;32;20090;-80
2021/06/16 00:26:36;;;;;;;8.88;5.12;;;19.90;69.50;;;;;;4364491;32;20397;-79
2021/06/16 00:29:04;;;;;;;9.52;5.37;;;19.90;69.60;;;;;;4364736;32;20061;-82
2021/06/16 00:31:31;;;;;;;7.82;5.47;;;19.90;69.60;;;;;;4364630;32;20153;-80
2021/06/16 00:33:58;;;;;;;9.45;5.43;;;19.80;69.70;;;;;;4364753;32;20035;-82
2021/06/16 00:36:25;;;;;;;10.55;5.70;;;19.80;69.80;;;;;;4364533;32;20442;-80
2021/06/16 00:38:52;;;;;;;10.55;5.35;;;19.80;69.80;;;;;;4364269;32;20099;-80
2021/06/16 00:41:19;;;;;;;9.60;6.15;;;19.80;69.80;;;;;;4377479;32;20066;-84
2021/06/16 00:43:46;;;;;;;11.48;5.57;;;19.70;69.80;;;;;;4376759;32;20110;-79
2021/06/16 00:46:13;;;;;;;11.98;5.75;;;19.60;69.90;;;;;;4376908;32;20027;-80
2021/06/16 00:48:40;;;;;;;8.93;5.47;;;19.60;70.00;;;;;;4376515;32;20157;-79
2021/06/16 00:51:07;;;;;;;11.32;5.72;;;19.60;70.10;;;;;;4364121;32;20055;-81
2021/06/16 00:53:34;;;;;;;11.80;5.72;;;19.60;70.20;;;;;;4365554;32;20415;-80
2021/06/16 00:56:01;;;;;;;7.05;5.30;;;19.60;70.20;;;;;;4390267;32;20098;-79
2021/06/16 00:58:28;;;;;;;8.32;5.50;;;19.50;70.20;;;;;;4364714;32;20098;-83
2021/06/16 01:01:17;;;;;;;11.27;6.05;;;19.50;70.30;;;;;;4364453;32;20483;-82
2021/06/16 01:04:06;;;;;;;7.60;5.50;;;19.50;70.30;;;;;;4376682;32;20403;-82
2021/06/16 01:06:42;;;;;;;9.30;6.20;;;19.40;70.30;;;;;;4366246;32;20106;-83
2021/06/16 01:09:17;;;;;;;10.88;5.97;;;19.40;70.40;;;;;;4365319;32;20129;-83
2021/06/16 01:12:11;;;;;;;9.40;6.47;;;19.40;70.40;;;;;;4364486;32;20106;-83
2021/06/16 01:14:43;;;;;;;7.22;5.20;;;19.30;70.30;;;;;;4365502;32;20069;-83
2021/06/16 01:17:10;;;;;;;13.95;6.15;;;19.30;70.30;;;;;;4365993;32;20465;-83
2021/06/16 01:20:04;;;;;;;8.38;6.40;;;19.30;70.40;;;;;;4364140;32;20050;-83
2021/06/16 01:22:40;;;;;;;8.50;5.82;;;19.20;70.40;;;;;;4364662;32;20049;-82
2021/06/16 01:25:32;;;;;;;8.57;5.03;;;19.20;70.40;;;;;;4364307;32;20058;-83
2021/06/16 01:27:58;;;;;;;8.90;5.97;;;19.10;70.40;;;;;;4379683;32;20454;-84
2021/06/16 01:30:28;;;;;;;8.90;6.72;;;19.10;70.50;;;;;;4367048;32;20047;-82
2021/06/16 01:32:55;;;;;;;7.05;5.50;;;19.10;70.60;;;;;;4367257;32;20085;-81
2021/06/16 01:35:24;;;;;;;10.73;5.50;;;19.00;70.50;;;;;;4366650;32;20043;-82
2021/06/16 01:37:51;;;;;;;9.32;6.37;;;19.00;70.40;;;;;;4366679;32;20475;-82
2021/06/16 01:40:18;;;;;;;9.15;5.85;;;18.90;70.40;;;;;;4366539;32;20137;-83
2021/06/16 01:42:45;;;;;;;9.05;6.43;;;18.90;70.50;;;;;;4352157;32;20098;-83
2021/06/16 01:45:13;;;;;;;8.57;5.87;;;18.90;70.60;;;;;;4340231;32;20066;-83
2021/06/16 01:47:40;;;;;;;7.60;5.45;;;18.90;70.70;;;;;;4353195;32;20483;-83
2021/06/16 01:50:08;;;;;;;14.32;6.20;;;18.90;70.80;;;;;;4350289;32;20037;-83
2021/06/16 01:52:35;;;;;;;14.93;6.28;;;18.90;70.90;;;;;;4367176;32;20050;-84
2021/06/16 01:55:03;;;;;;;7.43;5.68;;;18.80;71.00;;;;;;4366900;32;20493;-83
2021/06/16 01:57:30;;;;;;;13.25;6.35;;;18.80;71.00;;;;;;4366768;32;20436;-82
2021/06/16 01:59:57;;;;;;;12.95;5.55;;;18.80;70.90;;;;;;4366548;32;20438;-83
2021/06/16 02:02:24;;;;;;;7.87;5.53;;;18.70;70.90;;;;;;4366525;32;20050;-83
2021/06/16 02:04:51;;;;;;;10.45;6.00;;;18.70;70.90;;;;;;4366459;32;20133;-83
2021/06/16 02:07:19;;;;;;;9.30;5.70;;;18.70;70.90;;;;;;4366501;32;20126;-83
2021/06/16 02:09:46;;;;;;;14.40;5.90;;;18.60;70.90;;;;;;4366934;32;20109;-82
2021/06/16 02:12:14;;;;;;;10.05;5.97;;;18.60;70.90;;;;;;4366405;32;20059;-83
2021/06/16 02:14:42;;;;;;;11.65;5.75;;;18.60;71.00;;;;;;4366479;32;20035;-83
2021/06/16 02:17:11;;;;;;;8.27;6.10;;;18.60;71.10;;;;;;4366379;32;20073;-82
2021/06/16 02:19:39;;;;;;;8.80;5.30;;;18.50;71.10;;;;;;4366511;32;20080;-82
2021/06/16 02:22:07;;;;;;;12.35;6.40;;;18.50;71.20;;;;;;4366388;32;20094;-83
2021/06/16 02:24:34;;;;;;;12.00;6.60;;;18.50;71.30;;;;;;4366966;32;20045;-82
2021/06/16 02:27:01;;;;;;;11.73;5.62;;;18.50;71.20;;;;;;4366370;32;20146;-82
2021/06/16 02:29:28;;;;;;;10.02;5.55;;;18.40;71.20;;;;;;4366169;32;20035;-82
2021/06/16 02:31:56;;;;;;;9.00;6.03;;;18.40;71.20;;;;;;4366054;32;20510;-83
2021/06/16 02:34:24;;;;;;;9.82;6.28;;;18.40;71.20;;;;;;4366255;32;20023;-83
2021/06/16 02:36:53;;;;;;;15.07;6.47;;;18.40;71.20;;;;;;4378162;32;20039;-83
2021/06/16 02:39:28;;;;;;;10.15;6.25;;;18.40;71.10;;;;;;4365872;32;20054;-83
2021/06/16 02:41:55;;;;;;;15.30;6.32;;;18.30;71.10;;;;;;4365972;32;20059;-83
2021/06/16 02:44:23;;;;;;;10.88;7.12;;;18.30;71.10;;;;;;4365779;32;20098;-82
2021/06/16 02:46:51;;;;;;;11.43;6.68;;;18.20;71.10;;;;;;4365754;32;20430;-83
2021/06/16 02:49:22;;;;;;;8.85;6.80;;;18.20;71.20;;;;;;4378989;32;20057;-83
2021/06/16 02:51:49;;;;;;;9.32;6.55;;;18.20;71.30;;;;;;4366178;32;20425;-82
2021/06/16 02:54:17;;;;;;;15.30;6.30;;;18.20;71.40;;;;;;4365944;32;20106;-83
2021/06/16 02:56:47;;;;;;;8.23;5.72;;;18.20;71.50;;;;;;4366054;32;20035;-84
2021/06/16 02:59:14;;;;;;;9.35;5.95;;;18.10;71.40;;;;;;4367751;32;20411;-83
2021/06/16 03:01:43;;;;;;;11.23;5.25;;;18.10;71.60;;;;;;4365627;32;20078;-82
2021/06/16 03:04:11;;;;;;;12.52;5.75;;;18.00;71.60;;;;;;4365757;32;20362;-83
2021/06/16 03:06:38;;;;;;;13.65;5.95;;;18.00;71.60;;;;;;4365669;32;20121;-83
2021/06/16 03:09:05;;;;;;;10.57;6.45;;;18.00;71.60;;;;;;4365733;32;20048;-83
2021/06/16 03:11:33;;;;;;;12.37;6.55;;;18.00;71.60;;;;;;4365662;32;20471;-83
2021/06/16 03:14:01;;;;;;;11.50;5.97;;;18.00;71.50;;;;;;4378023;32;20141;-82
2021/06/16 03:16:29;;;;;;;11.02;5.07;;;17.90;71.50;;;;;;4365556;32;20098;-83
2021/06/16 03:18:58;;;;;;;9.75;5.78;;;17.90;71.60;;;;;;4366063;32;20377;-83
2021/06/16 03:21:25;;;;;;;11.93;5.68;;;17.90;71.70;;;;;;4365392;32;20117;-84
2021/06/16 03:23:52;;;;;;;14.23;6.00;;;17.90;71.70;;;;;;4365535;32;20062;-83
2021/06/16 03:26:19;;;;;;;10.00;6.45;;;17.90;71.70;;;;;;4365351;32;20047;-83
2021/06/16 03:28:49;;;;;;;9.07;5.53;;;17.80;71.60;;;;;;4365353;32;20403;-82
2021/06/16 03:31:16;;;;;;;11.35;5.68;;;17.80;71.50;;;;;;4377537;32;20103;-83
2021/06/16 03:33:43;;;;;;;10.35;5.37;;;17.80;71.60;;;;;;4365946;32;20031;-83
2021/06/16 03:36:11;;;;;;;9.90;5.90;;;17.80;71.70;;;;;;4365132;32;20055;-84
2021/06/16 03:38:38;;;;;;;8.13;6.12;;;17.80;71.80;;;;;;4366548;32;20134;-84
2021/06/16 03:41:05;;;;;;;9.57;6.03;;;17.70;71.80;;;;;;4364943;32;20118;-82
2021/06/16 03:43:32;;;;;;;9.35;5.90;;;17.70;71.80;;;;;;4377619;32;20015;-83
2021/06/16 03:45:59;;;;;;;11.80;6.45;;;17.60;71.70;;;;;;4377160;32;20099;-83
2021/06/16 03:48:26;;;;;;;12.27;6.90;;;17.60;71.60;;;;;;4378581;32;20036;-84
2021/06/16 03:50:53;;;;;;;10.82;5.00;;;17.60;71.70;;;;;;4365633;32;20098;-83
2021/06/16 03:53:20;;;;;;;13.13;6.12;;;17.50;71.80;;;;;;4364960;32;20026;-83
2021/06/16 03:55:48;;;;;;;12.52;5.97;;;17.50;71.90;;;;;;4365316;32;20050;-83
2021/06/16 03:58:15;;;;;;;10.75;6.57;;;17.50;71.90;;;;;;4364986;32;20051;-83
2021/06/16 04:00:43;;;;;;;11.55;6.15;;;17.50;71.90;;;;;;4364681;32;20141;-83
2021/06/16 04:03:11;;;;;;;12.43;6.70;;;17.40;71.80;;;;;;4365400;32;20031;-84
2021/06/16 04:05:38;;;;;;;7.72;5.00;;;17.40;71.90;;;;;;4366244;32;20493;-82
2021/06/16 04:08:05;;;;;;;13.57;6.15;;;17.40;71.90;;;;;;4365265;32;20114;-84
2021/06/16 04:10:33;;;;;;;8.60;6.45;;;17.40;72.00;;;;;;4364820;32;20031;-84
2021/06/16 04:13:01;;;;;;;9.77;6.12;;;17.40;72.20;;;;;;4365061;32;20066;-84
2021/06/16 04:15:28;;;;;;;10.75;6.07;;;17.40;72.20;;;;;;4376821;32;20407;-83
2021/06/16 04:17:58;;;;;;;8.60;6.22;;;17.40;72.30;;;;;;4366452;32;20023;-83
2021/06/16 04:20:26;;;;;;;9.18;5.12;;;17.40;72.30;;;;;;4365399;32;20106;-84
2021/06/16 04:22:53;;;;;;;8.18;6.12;;;17.40;72.50;;;;;;4364780;32;20039;-83
2021/06/16 04:25:23;;;;;;;8.32;6.03;;;17.40;72.60;;;;;;4364862;32;20130;-84
2021/06/16 04:27:53;;;;;;;11.38;6.45;;;17.40;72.70;;;;;;4365050;32;20046;-82
2021/06/16 04:30:21;;;;;;;10.13;6.68;;;17.40;72.70;;;;;;4364719;32;20102;-84
2021/06/16 04:32:48;;;;;;;11.98;5.95;;;17.40;72.70;;;;;;4366355;32;20138;-83
2021/06/16 04:35:15;;;;;;;8.55;4.97;;;17.40;72.70;;;;;;4364466;32;20431;-83
2021/06/16 04:37:42;;;;;;;7.45;5.40;;;17.40;72.80;;;;;;4364382;32;20055;-85
2021/06/16 04:40:10;;;;;;;13.57;7.68;;;17.40;72.90;;;;;;4364326;32;20449;-83
2021/06/16 04:42:37;;;;;;;10.15;6.90;;;17.40;73.00;;;;;;4364332;32;20045;-83
2021/06/16 04:45:06;;;;;;;10.18;6.95;;;17.40;73.10;;;;;;4376751;32;20125;-82
2021/06/16 04:47:33;;;;;;;16.58;7.35;;;17.40;73.20;;;;;;4364387;32;20051;-82
2021/06/16 04:50:00;;;;;;;9.20;6.68;;;17.40;73.20;;;;;;4364111;32;20098;-84
2021/06/16 04:52:29;;;;;;;11.27;7.68;;;17.40;73.30;;;;;;4364468;32;20441;-85
2021/06/16 04:54:56;;;;;;;13.93;6.55;;;17.40;73.40;;;;;;4364770;32;20466;-84
2021/06/16 04:57:23;;;;;;;10.65;6.12;;;17.40;73.50;;;;;;4390037;32;20015;-82
2021/06/16 04:59:50;;;;;;;12.63;5.45;;;17.40;73.70;;;;;;4364606;32;20031;-83
2021/06/16 05:02:17;;;;;;;14.73;8.00;;;17.40;73.80;;;;;;4368835;32;20051;-82
2021/06/16 05:04:44;;;;;;;12.23;7.28;;;17.40;73.80;;;;;;4379758;32;20106;-84
2021/06/16 05:07:11;;;;;;;14.30;7.57;;;17.40;73.90;;;;;;4381404;32;20023;-84
2021/06/16 05:09:38;;;;;;;14.38;7.95;;;17.40;74.10;;;;;;4367336;32;20081;-83
2021/06/16 05:12:06;;;;;;;13.93;7.12;;;17.40;74.40;;;;;;4367169;32;20101;-82
2021/06/16 05:14:33;;;;;;;8.45;6.40;;;17.40;74.50;;;;;;4379810;32;20397;-83
2021/06/16 05:17:02;;;;;;;10.38;5.87;;;17.40;74.50;;;;;;4379588;32;20458;-83
2021/06/16 05:19:29;;;;;;;12.90;7.03;;;17.50;74.50;;;;;;4367481;32;20053;-83
2021/06/16 05:22:01;;;;;;;14.52;7.70;;;17.50;74.60;;;;;;4379404;32;20053;-83
2021/06/16 05:24:27;;;;;;;9.95;7.80;;;17.50;74.70;;;;;;4367416;32;20048;-84
2021/06/16 05:26:54;;;;;;;15.15;6.78;;;17.50;74.80;;;;;;4367971;32;20035;-82
2021/06/16 05:29:21;;;;;;;11.90;6.15;;;17.60;74.90;;;;;;4379529;32;20039;-83
2021/06/16 05:31:48;;;;;;;14.80;9.00;;;17.60;75.00;;;;;;4367019;32;20053;-83
2021/06/16 05:34:15;;;;;;;13.95;8.73;;;17.70;75.10;;;;;;4367071;32;20047;-83
2021/06/16 05:36:42;;;;;;;13.25;8.02;;;17.70;75.20;;;;;;4366654;32;20453;-83
2021/06/16 05:39:10;;;;;;;11.48;7.70;;;17.70;75.30;;;;;;4364160;32;20050;-84
2021/06/16 05:41:37;;;;;;;13.15;9.18;;;17.80;75.50;;;;;;4376445;32;20118;-83
2021/06/16 05:44:04;;;;;;;11.90;8.38;;;17.90;75.60;;;;;;4365331;32;20399;-85
2021/06/16 05:46:31;;;;;;;12.15;8.95;;;17.90;75.60;;;;;;4364340;32;20031;-84
2021/06/16 05:48:58;;;;;;;13.60;8.57;;;17.90;75.70;;;;;;4378063;32;20047;-82
2021/06/16 05:51:26;;;;;;;11.68;8.27;;;18.00;75.80;;;;;;4364103;32;20114;-83
2021/06/16 05:53:53;;;;;;;22.37;12.18;;;18.00;75.80;;;;;;4364229;32;20122;-83
2021/06/16 05:56:20;;;;;;;16.65;11.55;;;18.00;75.90;;;;;;4363907;32;20126;-83
2021/06/16 05:58:47;;;;;;;22.55;14.07;;;18.20;76.40;;;;;;4376490;32;20056;-82
2021/06/16 06:01:14;;;;;;;18.33;10.60;;;18.20;76.50;;;;;;4376228;32;20441;-84
2021/06/16 06:03:42;;;;;;;20.12;14.00;;;18.40;76.70;;;;;;4376622;32;20081;-84
2021/06/16 06:06:09;;;;;;;16.90;11.60;;;18.40;76.80;;;;;;4365522;32;20498;-86
2021/06/16 06:08:36;;;;;;;17.50;10.77;;;18.40;76.80;;;;;;4363975;32;20051;-84
2021/06/16 06:11:03;;;;;;;19.67;12.27;;;18.50;76.70;;;;;;4363522;32;20107;-84
2021/06/16 06:13:30;;;;;;;21.02;12.73;;;18.60;76.60;;;;;;4349185;33;20099;-84
2021/06/16 06:15:57;;;;;;;12.32;8.98;;;18.60;76.90;;;;;;4372960;32;20102;-85
2021/06/16 06:18:24;;;;;;;12.93;9.10;;;18.70;77.10;;;;;;4360989;33;20103;-84
2021/06/16 06:20:51;;;;;;;15.38;9.93;;;18.80;76.90;;;;;;4373413;32;20060;-84
2021/06/16 06:23:18;;;;;;;15.45;11.63;;;18.90;76.70;;;;;;4373718;32;20063;-85
2021/06/16 06:25:45;;;;;;;18.10;13.98;;;18.90;76.70;;;;;;4372955;32;20082;-83
2021/06/16 06:28:13;;;;;;;16.87;12.35;;;19.00;76.70;;;;;;4372055;32;20095;-86
2021/06/16 06:30:40;;;;;;;27.33;14.38;;;19.10;76.90;;;;;;4356795;32;20131;-82
2021/06/16 06:33:07;;;;;;;20.95;13.20;;;19.20;77.00;;;;;;4316611;32;20102;-83
2021/06/16 06:35:34;;;;;;;21.90;14.27;;;19.30;77.20;;;;;;4295478;32;1498753;-86
2021/06/16 06:38:04;;;;;;;18.90;12.57;;;19.40;77.30;;;;;;4361752;32;20094;-86
2021/06/16 06:40:31;;;;;;;24.23;12.63;;;19.60;77.40;;;;;;4375620;32;20062;-78
2021/06/16 06:42:58;;;;;;;22.05;11.85;;;19.60;77.30;;;;;;4389564;32;20065;-78
2021/06/16 06:45:25;;;;;;;14.80;11.07;;;19.80;77.10;;;;;;4375615;32;20093;-76
2021/06/16 06:47:52;;;;;;;22.52;12.07;;;19.90;76.80;;;;;;4362499;32;20119;-77
2021/06/16 06:50:22;;;;;;;15.32;10.68;;;19.90;76.70;;;;;;4374112;32;20065;-86
2021/06/16 06:52:50;;;;;;;15.52;10.82;;;20.00;76.60;;;;;;4377378;32;20062;-86
2021/06/16 06:55:17;;;;;;;20.65;12.13;;;20.10;76.60;;;;;;4377936;32;20077;-83
2021/06/16 06:57:44;;;;;;;16.75;10.77;;;20.30;76.70;;;;;;4377347;32;20027;-83
2021/06/16 07:00:12;;;;;;;15.80;11.12;;;20.40;76.80;;;;;;4365663;32;20079;-81
2021/06/16 07:02:42;;;;;;;18.70;11.93;;;20.50;76.60;;;;;;4377302;32;20038;-84
2021/06/16 07:05:10;;;;;;;19.12;11.02;;;20.60;76.50;;;;;;4377631;32;20081;-82
2021/06/16 07:07:37;;;;;;;15.65;10.32;;;20.70;76.30;;;;;;4364553;32;20129;-81
2021/06/16 07:10:05;;;;;;;18.35;11.23;;;20.90;76.10;;;;;;4378687;32;20121;-83
2021/06/16 07:12:33;;;;;;;17.62;10.00;;;20.90;75.80;;;;;;4377115;32;20039;-83
2021/06/16 07:15:01;;;;;;;15.13;10.57;;;21.10;75.70;;;;;;4370909;32;20448;-82
2021/06/16 07:17:28;;;;;;;17.33;9.80;;;21.20;75.80;;;;;;4349777;32;20031;-84
2021/06/16 07:19:57;;;;;;;16.87;9.95;;;21.40;76.00;;;;;;4362250;32;20054;-82
2021/06/16 07:22:24;;;;;;;12.00;9.30;;;21.50;75.90;;;;;;4362867;32;20043;-82
2021/06/16 07:24:51;;;;;;;22.62;10.73;;;21.60;75.80;;;;;;4362705;32;20486;-83
2021/06/16 07:27:20;;;;;;;15.25;10.63;;;21.80;75.60;;;;;;4362248;32;20098;-82
2021/06/16 07:29:47;;;;;;;20.40;9.77;;;21.90;75.50;;;;;;4361495;32;20626;-84
2021/06/16 07:32:16;;;;;;;11.73;8.63;;;22.10;75.60;;;;;;4360194;32;20427;-84
2021/06/16 07:34:47;;;;;;;13.30;7.45;;;22.20;75.50;;;;;;4362192;32;20075;-81
2021/06/16 07:37:14;;;;;;;17.08;8.23;;;22.40;75.40;;;;;;4373481;32;20109;-84
2021/06/16 07:39:41;;;;;;;14.55;7.57;;;22.50;75.20;;;;;;4360763;32;20044;-83
2021/06/16 07:42:10;;;;;;;14.77;7.22;;;22.60;74.80;;;;;;4382354;32;20395;-86
2021/06/16 07:44:37;;;;;;;9.73;6.40;;;22.80;74.40;;;;;;4363740;32;20123;-84
2021/06/16 07:47:04;;;;;;;9.13;6.22;;;22.90;74.00;;;;;;4359866;32;20035;-84
2021/06/16 07:49:34;;;;;;;11.90;6.45;;;23.10;73.60;;;;;;4361813;32;20055;-85
2021/06/16 07:52:01;;;;;;;11.48;6.45;;;23.20;73.30;;;;;;4375797;32;20038;-85
2021/06/16 07:54:28;;;;;;;12.25;6.82;;;23.40;73.10;;;;;;4377343;32;20056;-85
2021/06/16 07:56:56;;;;;;;12.43;7.30;;;23.40;72.80;;;;;;4376989;32;20046;-83
2021/06/16 07:59:23;;;;;;;12.57;6.80;;;23.60;72.40;;;;;;4388639;32;20065;-83
2021/06/16 08:01:50;;;;;;;14.20;6.90;;;23.80;72.30;;;;;;4376427;32;20054;-84
2021/06/16 08:04:21;;;;;;;10.95;6.82;;;23.90;71.80;;;;;;4389189;32;20070;-85
2021/06/16 08:06:48;;;;;;;10.23;6.43;;;24.10;71.60;;;;;;4376579;32;20042;-85
2021/06/16 08:09:16;;;;;;;13.38;6.72;;;24.20;71.40;;;;;;4388586;32;20069;-88
2021/06/16 08:11:43;;;;;;;11.27;5.87;;;24.30;71.30;;;;;;4370393;32;20423;-86
2021/06/16 08:14:10;;;;;;;9.88;6.32;;;24.50;71.20;;;;;;4360680;32;20043;-85
2021/06/16 08:16:37;;;;;;;8.60;5.47;;;24.70;71.10;;;;;;4362455;32;20063;-87
2021/06/16 08:19:04;;;;;;;15.15;6.45;;;24.80;70.80;;;;;;4373663;32;20059;-84
2021/06/16 08:21:31;;;;;;;10.15;6.07;;;24.90;70.30;;;;;;4373880;32;20066;-82
2021/06/16 08:23:58;;;;;;;10.43;5.60;;;25.10;69.90;;;;;;4360958;32;20119;-83
2021/06/16 08:26:25;;;;;;;9.00;5.50;;;25.30;69.60;;;;;;4361552;32;20031;-84
2021/06/16 08:28:52;;;;;;;10.68;6.22;;;25.40;69.20;;;;;;4360901;32;20047;-84
2021/06/16 08:31:19;;;;;;;12.70;5.45;;;25.50;68.30;;;;;;4371454;32;20070;-86
2021/06/16 08:33:46;;;;;;;9.70;5.78;;;25.60;68.00;;;;;;4349051;32;20088;-84
2021/06/16 08:36:13;;;;;;;10.90;5.53;;;25.70;67.50;;;;;;4348430;32;20508;-85
2021/06/16 08:38:40;;;;;;;10.02;5.47;;;25.80;67.10;;;;;;4361642;32;20332;-85
2021/06/16 08:41:08;;;;;;;12.00;5.47;;;25.90;67.00;;;;;;4361085;32;20051;-83
2021/06/16 08:43:37;;;;;;;8.48;5.00;;;26.00;66.80;;;;;;4373140;32;20392;-83
2021/06/16 08:46:09;;;;;;;7.22;5.28;;;26.20;66.20;;;;;;4361134;32;20438;-81
2021/06/16 08:48:42;;;;;;;9.88;5.55;;;26.30;65.80;;;;;;4361200;32;20565;-88
2021/06/16 08:51:12;;;;;;;11.32;4.80;;;26.40;65.30;;;;;;4361468;32;20059;-85
2021/06/16 08:54:05;;;;;;;7.60;4.80;;;26.60;65.00;;;;;;4362391;32;20027;-87
2021/06/16 08:56:56;;;;;;;9.38;4.43;;;26.80;64.50;;;;;;4321757;33;20453;-88
2021/06/16 08:59:46;;;;;;;15.20;4.55;;;26.90;63.90;;;;;;4324363;33;20092;-87
2021/06/16 09:02:34;;;;;;;10.52;5.07;;;27.00;63.20;;;;;;4317235;33;20083;-86
2021/06/16 09:05:01;;;;;;;9.93;4.20;;;27.10;62.60;;;;;;4317914;33;20031;-87
2021/06/16 09:07:44;;;;;;;;;;;;;;;;;;;;;
2021/06/16 09:10:29;;;;;;;7.87;5.03;;;27.40;62.30;;;;;;4324207;33;20040;-84
2021/06/16 09:13:07;;;;;;;7.15;4.80;;;27.50;62.60;;;;;;4330310;33;20036;-85
2021/06/16 09:15:34;;;;;;;9.55;5.03;;;27.60;62.30;;;;;;4317518;33;20071;-87
2021/06/16 09:18:08;;;;;;;6.93;4.10;;;27.70;62.20;;;;;;4315239;33;20036;-85
2021/06/16 09:20:58;;;;;;;6.10;3.70;;;27.80;62.00;;;;;;4317460;33;20080;-91
2021/06/16 09:23:34;;;;;;;9.60;4.20;;;27.90;61.90;;;;;;4327009;33;20116;-85
2021/06/16 09:26:16;;;;;;;8.48;5.45;;;28.10;61.60;;;;;;4319874;33;20036;-86
2021/06/16 09:28:45;;;;;;;10.05;4.70;;;28.20;61.30;;;;;;4360667;32;20488;-88
2021/06/16 09:31:27;;;;;;;;;;;;;;;;;;;;;
2021/06/16 09:34:05;;;;;;;8.50;4.68;;;28.40;60.40;;;;;;4361885;32;20157;-90
2021/06/16 09:36:46;;;;;;;8.90;4.60;;;28.60;60.80;;;;;;4362307;32;20101;-85
2021/06/16 09:39:24;;;;;;;8.05;4.20;;;28.70;60.30;;;;;;4350297;32;20051;-87
2021/06/16 09:42:05;;;;;;;11.95;4.78;;;28.80;60.00;;;;;;4361446;32;20487;-85
2021/06/16 09:45:02;;;;;;;6.90;4.65;;;28.90;59.60;;;;;;4353413;32;20071;-89
2021/06/16 09:47:33;;;;;;;5.80;3.78;;;29.10;59.30;;;;;;4351611;32;20040;-88
2021/06/16 09:50:04;;;;;;;7.00;4.05;;;29.20;59.20;;;;;;4375223;32;20043;-86
2021/06/16 09:52:50;;;;;;;;;;;;;;;;;;;;;
2021/06/16 09:55:26;;;;;;;7.15;4.40;;;29.50;58.90;;;;;;4375966;32;20086;-91
2021/06/16 09:58:21;;;;;;;6.82;3.40;;;29.70;58.90;;;;;;4352084;32;20407;-87
2021/06/16 10:00:53;;;;;;;8.05;3.70;;;29.80;58.60;;;;;;4376913;32;20032;-88
2021/06/16 10:03:38;;;;;;;9.90;4.05;;;30.00;58.40;;;;;;4362536;32;20439;-90
2021/06/16 10:06:20;;;;;;;7.57;3.85;;;30.10;58.00;;;;;;4364670;32;20325;-89
2021/06/16 10:08:48;;;;;;;6.72;4.05;;;30.20;57.80;;;;;;4351622;32;20055;-87
2021/06/16 10:11:20;;;;;;;9.15;3.92;;;30.30;57.50;;;;;;4350517;32;20442;-89
2021/06/16 10:13:51;;;;;;;5.43;3.40;;;30.40;56.70;;;;;;4351517;32;20114;-85
2021/06/16 10:16:21;;;;;;;7.18;3.60;;;30.50;55.90;;;;;;4348385;33;20027;-88
2021/06/16 10:18:49;;;;;;;6.28;3.40;;;30.50;56.00;;;;;;4360306;32;20035;-87
2021/06/16 10:21:38;;;;;;;;;;;;;;;;;;;;;
2021/06/16 10:24:38;;;;;;;6.45;3.78;;;30.80;55.50;;;;;;4359886;33;20107;-88
2021/06/16 10:27:10;;;;;;;6.45;3.53;;;31.00;55.10;;;;;;4347849;33;20187;-90
2021/06/16 10:29:48;;;;;;;6.10;3.75;;;31.10;54.60;;;;;;4362180;32;20057;-88
2021/06/16 10:32:53;;;;;;;;;;;;;;;;;;;;;
2021/06/16 10:35:44;;;;;;;6.57;3.30;;;31.30;53.90;;;;;;4312332;33;20049;-87
2021/06/16 10:38:17;;;;;;;4.93;3.17;;;31.30;53.50;;;;;;4288964;33;20065;-86
2021/06/16 10:40:52;;;;;;;6.72;3.65;;;31.40;53.50;;;;;;4315135;33;20049;-89
2021/06/16 10:43:52;;;;;;;;;;;31.50;53.40;;;;;;4315162;33;20079;-91
2021/06/16 10:46:58;;;;;;;6.37;3.15;;;31.60;53.60;;;;;;4314929;33;20027;-91
2021/06/16 10:49:52;;;;;;;;;;;;;;;;;;;;;
2021/06/16 10:52:42;;;;;;;;;;;;;;;;;;;;;
2021/06/16 10:55:57;;;;;;;4.75;3.35;;;31.90;53.70;;;;;;4314295;33;20147;-91
2021/06/16 10:58:33;;;;;;;10.98;3.45;;;32.00;52.30;;;;;;4314804;33;20044;-91
2021/06/16 11:01:27;;;;;;;6.07;3.22;;;32.00;52.10;;;;;;4304398;33;20036;-89
2021/06/16 11:04:19;;;;;;;;;;;;;;;;;;;;;
2021/06/16 11:07:34;;;;;;;9.60;3.30;;;32.20;52.80;;;;;;4314815;33;20037;-85
2021/06/16 11:10:03;;;;;;;5.90;3.40;;;32.30;52.50;;;;;;4315215;33;20050;-90
2021/06/16 11:12:53;;;;;;;6.05;3.30;;;32.40;51.70;;;;;;4312991;33;20422;-87
2021/06/16 11:15:42;;;;;;;5.60;3.10;;;32.50;51.80;;;;;;4344681;33;20141;-89
2021/06/16 11:18:24;;;;;;;;;;;;;;;;;;;;;
2021/06/16 11:21:08;;;;;;;6.12;3.12;;;32.60;51.80;;;;;;4346351;33;20044;-89
2021/06/16 11:24:02;;;;;;;;;;;;;;;;;;;;;
2021/06/16 11:26:55;;;;;;;;;;;;;;;;;;;;;
2021/06/16 11:30:13;;;;;;;;;;;;;;;;;;;;;
2021/06/16 11:33:25;;;;;;;9.73;3.67;;;32.70;51.70;;;;;;4358640;33;20044;-92
2021/06/16 11:36:27;;;;;;;;;;;;;;;;;;;;;
2021/06/16 11:39:10;;;;;;;9.95;3.47;;;32.70;51.90;;;;;;4252777;33;20088;-89
2021/06/16 11:41:46;;;;;;;5.95;3.42;;;32.70;51.90;;;;;;4235636;33;20038;-86
2021/06/16 11:44:18;;;;;;;8.10;3.90;;;32.60;51.60;;;;;;4276204;33;20049;-89
2021/06/16 11:47:01;;;;;;;;;;;;;;;;;;;;;
2021/06/16 11:49:59;;;;;;;;;;;;;;;;;;;;;
2021/06/16 11:52:23;;;;;;;10.45;3.78;;;32.50;51.90;;;;;;4278717;28;20083;-86
2021/06/16 11:55:01;;;;;;;12.80;3.78;;;32.40;51.80;;;;;;4312742;33;20049;-89
2021/06/16 11:57:59;;;;;;;;;;;;;;;;;;;;;
2021/06/16 12:00:51;;;;;;;8.07;3.80;;;32.50;52.20;;;;;;4271382;33;20096;-88
2021/06/16 12:04:22;;;;;;;5.70;3.53;;;32.50;52.30;;;;;;4271398;33;20052;-90
2021/06/16 12:07:05;;;;;;;5.85;3.45;;;32.60;52.30;;;;;;4233600;33;20050;-87
2021/06/16 12:10:01;;;;;;;6.93;3.30;;;32.70;51.80;;;;;;4250466;33;20097;-89
2021/06/16 12:13:05;;;;;;;;;;;;;;;;;;;;;
2021/06/16 12:16:00;;;;;;;5.87;3.37;;;32.80;51.30;;;;;;4329200;33;20044;-90
2021/06/16 12:19:01;;;;;;;;;;;;;;;;;;;;;
2021/06/16 12:22:23;;;;;;;;;;;;;;;;;;;;;
2021/06/16 12:25:36;;;;;;;;;;;;;;;;;;;;;
2021/06/16 12:36:20;;;;;;;8.55;4.03;;;33.20;50.70;;;;;;4299293;33;20049;-87
2021/06/16 12:39:47;;;;;;;;;;;;;;;;;;;;;
2021/06/16 12:57:07;;;;;;;7.12;3.85;;;33.30;50.50;;;;;;4319487;32;3642083;-90
2021/06/16 13:00:34;;;;;;;6.47;3.30;;;33.30;50.10;;;;;;4358555;32;20052;-89
2021/06/16 13:08:04;;;;;;;12.25;3.70;;;33.30;50.50;;;;;;4311989;33;20071;-90
2021/06/16 13:12:12;;;;;;;;;;;;;;;;;;;;;
2021/06/16 13:18:20;;;;;;;5.43;3.78;;;33.50;50.50;;;;;;4221040;33;20488;-90
2021/06/16 13:25:50;;;;;;;;;;;;;;;;;;;;;
2021/06/16 13:29:23;;;;;;;7.45;3.40;;;33.50;50.60;;;;;;4215414;33;20372;-93
2021/06/16 14:19:12;;;;;;;9.55;3.25;;;35.00;47.30;;;;;;5092120;28;20016;-88
2021/06/16 14:23:14;;;;;;;;;;;;;;;;;;;;;
2021/06/16 14:46:32;;;;;;;;;;;;;;;;;;;;;
2021/06/16 15:11:07;;;;;;;;;;;;;;;;;;;;;
2021/06/16 15:13:46;;;;;;;7.10;3.25;;;35.20;47.30;;;;;;4854931;29;20092;-85
2021/06/16 15:16:12;;;;;;;6.60;2.90;;;35.10;47.70;;;;;;4860638;29;20312;-85
2021/06/16 15:18:40;;;;;;;5.37;3.00;;;35.10;47.70;;;;;;4861267;29;20454;-84
2021/06/16 15:21:06;;;;;;;4.95;3.00;;;35.10;47.40;;;;;;4864475;29;20036;-84
2021/06/16 15:23:47;;;;;;;6.35;2.70;;;35.00;47.30;;;;;;4941077;28;20044;-85
2021/06/16 15:26:14;;;;;;;9.70;3.10;;;35.00;47.40;;;;;;4952149;28;20142;-85
2021/06/16 15:28:42;;;;;;;5.93;2.90;;;35.00;47.30;;;;;;4958877;28;20410;-84
2021/06/16 15:31:13;;;;;;;5.65;2.78;;;35.00;47.40;;;;;;4973395;28;20023;-85
2021/06/16 15:33:42;;;;;;;5.62;2.70;;;35.00;47.30;;;;;;4973548;28;20089;-85
2021/06/16 15:36:09;;;;;;;9.43;2.80;;;35.00;47.30;;;;;;4990063;28;20031;-87
2021/06/16 16:01:51;;;;;;;5.93;2.95;;;34.90;46.50;;;;;;4952738;29;20051;-87
2021/06/16 16:04:39;;;;;;;5.03;2.70;;;34.80;46.60;;;;;;4968944;28;20031;-87
2021/06/16 16:07:44;;;;;;;;;;;;;;;;;;;;;
2021/06/16 16:10:39;;;;;;;;;;;;;;;;;;;;;
2021/06/16 16:14:06;;;;;;;5.85;2.87;;;34.60;47.20;;;;;;4926498;29;20066;-88
2021/06/16 16:16:49;;;;;;;;;;;;;;;;;;;;;
2021/06/16 16:19:37;;;;;;;;;;;;;;;;;;;;;
2021/06/16 16:22:58;;;;;;;4.97;3.00;;;34.50;47.80;;;;;;5005831;28;20065;-86
2021/06/16 16:25:40;;;;;;;8.68;2.90;;;34.50;47.70;;;;;;5061781;28;20141;-86